Terminal Aerodrome Forecast
Issued by NWS

Home | Current Version | Previous Version | Text Only | Print | Product List | Glossary Off
Versions: 1 2 3 4 5 6 7 8 9 10 11 12 13 14 15 16 17 18

932
FTUS43 KMPX 060542
TAFRNH
TAF
KRNH 060542Z 0606/0706 22007KT 6SM BR OVC012
      TEMPO 0606/0609 4SM BR SCT012
     FM061000 20005KT P6SM BKN007 OVC011
     FM061500 20008KT P6SM SCT100 BKN200
     FM062300 21012KT P6SM OVC070=

USA.gov is the U.S. government's official web portal to all federal, state and local government web resources and services.